sensor_id;sensor_type;location;lat;lon;timestamp;temperature;humidity
8994;DHT22;4532;50.886;4.700;2023-04-03T00:01:47;6.00;99.90
8994;DHT22;4532;50.886;4.700;2023-04-03T00:04:17;6.00;99.90
8994;DHT22;4532;50.886;4.700;2023-04-03T00:06:47;5.90;99.90
8994;DHT22;4532;50.886;4.700;2023-04-03T00:09:21;5.90;99.90
8994;DHT22;4532;50.886;4.700;2023-04-03T00:11:50;5.90;99.90
8994;DHT22;4532;50.886;4.700;2023-04-03T00:14:17;5.90;99.90
8994;DHT22;4532;50.886;4.700;2023-04-03T00:16:44;5.90;99.90
8994;DHT22;4532;50.886;4.700;2023-04-03T00:19:14;5.80;99.90
8994;DHT22;4532;50.886;4.700;2023-04-03T00:21:42;5.80;99.90
8994;DHT22;4532;50.886;4.700;2023-04-03T00:24:09;5.80;99.90
8994;DHT22;4532;50.886;4.700;2023-04-03T00:26:41;5.80;99.90
8994;DHT22;4532;50.886;4.700;2023-04-03T00:29:11;5.70;99.90
8994;DHT22;4532;50.886;4.700;2023-04-03T00:31:40;5.80;99.90
8994;DHT22;4532;50.886;4.700;2023-04-03T00:34:10;5.70;99.90
8994;DHT22;4532;50.886;4.700;2023-04-03T00:36:39;5.70;99.90
8994;DHT22;4532;50.886;4.700;2023-04-03T00:39:07;5.70;99.90
8994;DHT22;4532;50.886;4.700;2023-04-03T00:41:39;5.70;99.90
8994;DHT22;4532;50.886;4.700;2023-04-03T00:47:16;5.60;99.90
8994;DHT22;4532;50.886;4.700;2023-04-03T00:49:46;5.60;99.90
8994;DHT22;4532;50.886;4.700;2023-04-03T00:52:16;5.60;99.90
8994;DHT22;4532;50.886;4.700;2023-04-03T00:54:45;5.50;99.90
8994;DHT22;4532;50.886;4.700;2023-04-03T00:57:17;5.50;99.90
8994;DHT22;4532;50.886;4.700;2023-04-03T00:59:57;5.50;99.90
8994;DHT22;4532;50.886;4.700;2023-04-03T01:02:27;5.50;99.90
8994;DHT22;4532;50.886;4.700;2023-04-03T01:04:54;5.50;99.90
8994;DHT22;4532;50.886;4.700;2023-04-03T01:07:24;5.50;99.90
8994;DHT22;4532;50.886;4.700;2023-04-03T01:09:57;5.50;99.90
8994;DHT22;4532;50.886;4.700;2023-04-03T01:12:31;5.40;99.90
8994;DHT22;4532;50.886;4.700;2023-04-03T01:25:17;5.40;99.90
8994;DHT22;4532;50.886;4.700;2023-04-03T01:27:44;5.30;99.90
8994;DHT22;4532;50.886;4.700;2023-04-03T01:30:17;5.20;99.90
8994;DHT22;4532;50.886;4.700;2023-04-03T01:32:47;5.20;99.90
8994;DHT22;4532;50.886;4.700;2023-04-03T01:35:14;5.10;99.90
8994;DHT22;4532;50.886;4.700;2023-04-03T01:37:46;5.10;99.90
8994;DHT22;4532;50.886;4.700;2023-04-03T01:40:15;5.10;99.90
8994;DHT22;4532;50.886;4.700;2023-04-03T01:42:42;5.00;99.90
8994;DHT22;4532;50.886;4.700;2023-04-03T01:45:14;5.00;99.90
8994;DHT22;4532;50.886;4.700;2023-04-03T01:47:42;5.00;99.90
8994;DHT22;4532;50.886;4.700;2023-04-03T01:50:09;5.00;99.90
8994;DHT22;4532;50.886;4.700;2023-04-03T01:52:36;5.00;99.90
8994;DHT22;4532;50.886;4.700;2023-04-03T01:55:06;5.00;99.90
8994;DHT22;4532;50.886;4.700;2023-04-03T01:57:35;5.00;99.90
8994;DHT22;4532;50.886;4.700;2023-04-03T02:00:03;5.00;99.90
8994;DHT22;4532;50.886;4.700;2023-04-03T02:02:33;5.00;99.90
8994;DHT22;4532;50.886;4.700;2023-04-03T02:05:03;5.00;99.90
8994;DHT22;4532;50.886;4.700;2023-04-03T02:07:30;5.00;99.90
8994;DHT22;4532;50.886;4.700;2023-04-03T02:09:57;4.90;99.90
8994;DHT22;4532;50.886;4.700;2023-04-03T02:12:24;4.90;99.90
8994;DHT22;4532;50.886;4.700;2023-04-03T02:14:51;4.90;99.90
8994;DHT22;4532;50.886;4.700;2023-04-03T02:17:19;4.90;99.90
8994;DHT22;4532;50.886;4.700;2023-04-03T02:19:51;4.90;99.90
8994;DHT22;4532;50.886;4.700;2023-04-03T02:22:18;4.90;99.90
8994;DHT22;4532;50.886;4.700;2023-04-03T02:24:48;4.80;99.90
8994;DHT22;4532;50.886;4.700;2023-04-03T02:27:20;4.80;99.90
8994;DHT22;4532;50.886;4.700;2023-04-03T02:29:47;4.80;99.90
8994;DHT22;4532;50.886;4.700;2023-04-03T02:32:15;4.80;99.90
8994;DHT22;4532;50.886;4.700;2023-04-03T02:34:42;4.70;99.90
8994;DHT22;4532;50.886;4.700;2023-04-03T02:37:11;4.70;99.90
8994;DHT22;4532;50.886;4.700;2023-04-03T02:39:39;4.70;99.90
8994;DHT22;4532;50.886;4.700;2023-04-03T02:42:06;4.70;99.90
8994;DHT22;4532;50.886;4.700;2023-04-03T02:44:34;4.70;99.90
8994;DHT22;4532;50.886;4.700;2023-04-03T02:47:02;4.70;99.90
8994;DHT22;4532;50.886;4.700;2023-04-03T02:49:32;4.70;99.90
8994;DHT22;4532;50.886;4.700;2023-04-03T02:51:59;4.70;99.90
8994;DHT22;4532;50.886;4.700;2023-04-03T02:54:26;4.70;99.90
8994;DHT22;4532;50.886;4.700;2023-04-03T02:56:57;4.70;99.90
8994;DHT22;4532;50.886;4.700;2023-04-03T02:59:27;4.70;99.90
8994;DHT22;4532;50.886;4.700;2023-04-03T03:01:54;4.70;99.90
8994;DHT22;4532;50.886;4.700;2023-04-03T03:04:22;4.70;99.90
8994;DHT22;4532;50.886;4.700;2023-04-03T03:06:52;4.60;99.90
8994;DHT22;4532;50.886;4.700;2023-04-03T03:09:21;4.60;99.90
8994;DHT22;4532;50.886;4.700;2023-04-03T03:11:48;4.60;99.90
8994;DHT22;4532;50.886;4.700;2023-04-03T03:14:16;4.50;99.90
8994;DHT22;4532;50.886;4.700;2023-04-03T03:16:48;4.50;99.90
8994;DHT22;4532;50.886;4.700;2023-04-03T03:19:17;4.50;99.90
8994;DHT22;4532;50.886;4.700;2023-04-03T03:21:48;4.50;99.90
8994;DHT22;4532;50.886;4.700;2023-04-03T03:24:21;4.40;99.90
8994;DHT22;4532;50.886;4.700;2023-04-03T03:26:53;4.40;99.90
8994;DHT22;4532;50.886;4.700;2023-04-03T03:29:20;4.40;99.90
8994;DHT22;4532;50.886;4.700;2023-04-03T03:31:49;4.40;99.90
8994;DHT22;4532;50.886;4.700;2023-04-03T03:34:17;4.30;99.90
8994;DHT22;4532;50.886;4.700;2023-04-03T03:36:44;4.40;99.90
8994;DHT22;4532;50.886;4.700;2023-04-03T03:39:14;4.30;99.90
8994;DHT22;4532;50.886;4.700;2023-04-03T03:41:43;4.40;99.90
8994;DHT22;4532;50.886;4.700;2023-04-03T03:44:10;4.30;99.90
8994;DHT22;4532;50.886;4.700;2023-04-03T03:46:37;4.30;99.90
8994;DHT22;4532;50.886;4.700;2023-04-03T03:49:04;4.30;99.90
8994;DHT22;4532;50.886;4.700;2023-04-03T03:51:32;4.30;99.90
8994;DHT22;4532;50.886;4.700;2023-04-03T03:53:59;4.30;99.90
8994;DHT22;4532;50.886;4.700;2023-04-03T03:56:33;4.30;99.90
8994;DHT22;4532;50.886;4.700;2023-04-03T03:59:05;4.30;99.90
8994;DHT22;4532;50.886;4.700;2023-04-03T04:01:35;4.20;99.90
8994;DHT22;4532;50.886;4.700;2023-04-03T04:04:04;4.20;99.90
8994;DHT22;4532;50.886;4.700;2023-04-03T04:06:31;4.20;99.90
8994;DHT22;4532;50.886;4.700;2023-04-03T04:09:01;4.20;99.90
8994;DHT22;4532;50.886;4.700;2023-04-03T04:11:28;4.20;99.90
8994;DHT22;4532;50.886;4.700;2023-04-03T04:13:57;4.20;99.90
8994;DHT22;4532;50.886;4.700;2023-04-03T04:16:27;4.10;99.90
8994;DHT22;4532;50.886;4.700;2023-04-03T04:18:59;4.10;99.90
8994;DHT22;4532;50.886;4.700;2023-04-03T04:21:26;4.10;99.90
8994;DHT22;4532;50.886;4.700;2023-04-03T04:23:53;4.10;99.90
8994;DHT22;4532;50.886;4.700;2023-04-03T04:26:23;4.00;99.90
8994;DHT22;4532;50.886;4.700;2023-04-03T04:28:52;4.10;99.90
8994;DHT22;4532;50.886;4.700;2023-04-03T04:31:24;4.10;99.90
8994;DHT22;4532;50.886;4.700;2023-04-03T04:33:56;4.00;99.90
8994;DHT22;4532;50.886;4.700;2023-04-03T04:36:24;4.00;99.90
8994;DHT22;4532;50.886;4.700;2023-04-03T04:38:52;4.00;99.90
8994;DHT22;4532;50.886;4.700;2023-04-03T04:41:22;3.90;99.90
8994;DHT22;4532;50.886;4.700;2023-04-03T04:43:52;3.90;99.90
8994;DHT22;4532;50.886;4.700;2023-04-03T04:46:19;3.90;99.90
8994;DHT22;4532;50.886;4.700;2023-04-03T04:48:49;3.90;99.90
8994;DHT22;4532;50.886;4.700;2023-04-03T04:51:20;3.90;99.90
8994;DHT22;4532;50.886;4.700;2023-04-03T04:53:47;3.90;99.90
8994;DHT22;4532;50.886;4.700;2023-04-03T04:56:17;3.90;99.90
8994;DHT22;4532;50.886;4.700;2023-04-03T04:58:44;3.90;99.90
8994;DHT22;4532;50.886;4.700;2023-04-03T05:01:13;3.90;99.90
8994;DHT22;4532;50.886;4.700;2023-04-03T05:03:45;3.90;99.90
8994;DHT22;4532;50.886;4.700;2023-04-03T05:06:13;3.90;99.90
8994;DHT22;4532;50.886;4.700;2023-04-03T05:08:42;3.80;99.90
8994;DHT22;4532;50.886;4.700;2023-04-03T05:11:14;3.80;99.90
8994;DHT22;4532;50.886;4.700;2023-04-03T05:13:43;3.80;99.90
8994;DHT22;4532;50.886;4.700;2023-04-03T05:16:13;3.70;99.90
8994;DHT22;4532;50.886;4.700;2023-04-03T05:18:45;3.70;99.90
8994;DHT22;4532;50.886;4.700;2023-04-03T05:21:14;3.70;99.90
8994;DHT22;4532;50.886;4.700;2023-04-03T05:23:41;3.70;99.90
8994;DHT22;4532;50.886;4.700;2023-04-03T05:26:08;3.70;99.90
8994;DHT22;4532;50.886;4.700;2023-04-03T05:28:38;3.70;99.90
8994;DHT22;4532;50.886;4.700;2023-04-03T05:31:05;3.70;99.90
8994;DHT22;4532;50.886;4.700;2023-04-03T05:33:34;3.70;99.90
8994;DHT22;4532;50.886;4.700;2023-04-03T05:36:05;3.70;99.90
8994;DHT22;4532;50.886;4.700;2023-04-03T05:38:39;3.70;99.90
8994;DHT22;4532;50.886;4.700;2023-04-03T05:41:08;3.80;99.90
8994;DHT22;4532;50.886;4.700;2023-04-03T05:43:35;3.80;99.90
8994;DHT22;4532;50.886;4.700;2023-04-03T05:46:10;3.80;99.90
8994;DHT22;4532;50.886;4.700;2023-04-03T05:48:41;3.80;99.90
8994;DHT22;4532;50.886;4.700;2023-04-03T05:51:20;3.90;99.90
8994;DHT22;4532;50.886;4.700;2023-04-03T05:53:51;3.90;99.90
8994;DHT22;4532;50.886;4.700;2023-04-03T05:56:21;3.90;99.90
8994;DHT22;4532;50.886;4.700;2023-04-03T05:58:50;3.90;99.90
8994;DHT22;4532;50.886;4.700;2023-04-03T06:01:18;3.90;99.90
8994;DHT22;4532;50.886;4.700;2023-04-03T06:03:48;3.90;99.90
8994;DHT22;4532;50.886;4.700;2023-04-03T06:06:17;3.90;99.90
8994;DHT22;4532;50.886;4.700;2023-04-03T06:08:44;3.90;99.90
8994;DHT22;4532;50.886;4.700;2023-04-03T06:11:18;3.90;99.90
8994;DHT22;4532;50.886;4.700;2023-04-03T06:13:46;4.00;99.90
8994;DHT22;4532;50.886;4.700;2023-04-03T06:16:20;3.90;99.90
8994;DHT22;4532;50.886;4.700;2023-04-03T06:18:50;4.00;99.90
8994;DHT22;4532;50.886;4.700;2023-04-03T06:21:17;4.00;99.90
8994;DHT22;4532;50.886;4.700;2023-04-03T06:23:46;4.10;99.90
8994;DHT22;4532;50.886;4.700;2023-04-03T06:26:13;4.10;99.90
8994;DHT22;4532;50.886;4.700;2023-04-03T06:28:40;4.10;99.90
8994;DHT22;4532;50.886;4.700;2023-04-03T06:31:08;4.10;99.90
8994;DHT22;4532;50.886;4.700;2023-04-03T06:33:38;4.10;99.90
8994;DHT22;4532;50.886;4.700;2023-04-03T06:36:05;4.10;99.90
8994;DHT22;4532;50.886;4.700;2023-04-03T06:38:36;4.20;99.90
8994;DHT22;4532;50.886;4.700;2023-04-03T06:41:03;4.20;99.90
8994;DHT22;4532;50.886;4.700;2023-04-03T06:43:30;4.20;99.90
8994;DHT22;4532;50.886;4.700;2023-04-03T06:46:04;4.20;99.90
8994;DHT22;4532;50.886;4.700;2023-04-03T06:48:37;4.20;99.90
8994;DHT22;4532;50.886;4.700;2023-04-03T06:51:05;4.30;99.90
8994;DHT22;4532;50.886;4.700;2023-04-03T06:53:32;4.30;99.90
8994;DHT22;4532;50.886;4.700;2023-04-03T06:56:07;4.30;99.90
8994;DHT22;4532;50.886;4.700;2023-04-03T06:58:37;4.40;99.90
8994;DHT22;4532;50.886;4.700;2023-04-03T07:01:04;4.40;99.90
8994;DHT22;4532;50.886;4.700;2023-04-03T07:03:36;4.40;99.90
8994;DHT22;4532;50.886;4.700;2023-04-03T07:06:09;4.40;99.90
8994;DHT22;4532;50.886;4.700;2023-04-03T07:08:39;4.50;99.90
8994;DHT22;4532;50.886;4.700;2023-04-03T07:11:06;4.50;99.90
8994;DHT22;4532;50.886;4.700;2023-04-03T07:13:36;4.50;99.90
8994;DHT22;4532;50.886;4.700;2023-04-03T07:16:07;4.60;99.90
8994;DHT22;4532;50.886;4.700;2023-04-03T07:18:37;4.60;99.90
8994;DHT22;4532;50.886;4.700;2023-04-03T07:21:05;4.70;99.90
8994;DHT22;4532;50.886;4.700;2023-04-03T07:23:32;4.70;99.90
8994;DHT22;4532;50.886;4.700;2023-04-03T07:26:02;4.70;99.90
8994;DHT22;4532;50.886;4.700;2023-04-03T07:28:30;4.80;99.90
8994;DHT22;4532;50.886;4.700;2023-04-03T07:31:09;4.80;99.90
8994;DHT22;4532;50.886;4.700;2023-04-03T07:33:40;4.90;99.90
8994;DHT22;4532;50.886;4.700;2023-04-03T07:36:08;4.90;99.90
8994;DHT22;4532;50.886;4.700;2023-04-03T07:38:36;4.90;99.90
8994;DHT22;4532;50.886;4.700;2023-04-03T07:41:06;5.00;99.90
8994;DHT22;4532;50.886;4.700;2023-04-03T07:43:35;5.00;99.90
8994;DHT22;4532;50.886;4.700;2023-04-03T07:46:05;5.10;99.90
8994;DHT22;4532;50.886;4.700;2023-04-03T07:48:32;5.10;99.90
8994;DHT22;4532;50.886;4.700;2023-04-03T07:51:00;5.20;99.90
8994;DHT22;4532;50.886;4.700;2023-04-03T07:53:32;5.30;99.90
8994;DHT22;4532;50.886;4.700;2023-04-03T07:56:06;5.30;99.90
8994;DHT22;4532;50.886;4.700;2023-04-03T07:58:37;5.40;99.90
8994;DHT22;4532;50.886;4.700;2023-04-03T08:01:04;5.40;99.90
8994;DHT22;4532;50.886;4.700;2023-04-03T08:03:36;5.40;99.90
8994;DHT22;4532;50.886;4.700;2023-04-03T08:06:07;5.50;99.90
8994;DHT22;4532;50.886;4.700;2023-04-03T08:08:42;5.60;99.90
8994;DHT22;4532;50.886;4.700;2023-04-03T08:11:10;5.60;99.90
8994;DHT22;4532;50.886;4.700;2023-04-03T08:13:39;5.60;99.90
8994;DHT22;4532;50.886;4.700;2023-04-03T08:16:20;5.70;99.90
8994;DHT22;4532;50.886;4.700;2023-04-03T08:18:50;5.70;99.90
8994;DHT22;4532;50.886;4.700;2023-04-03T08:21:19;5.80;99.90
8994;DHT22;4532;50.886;4.700;2023-04-03T08:23:50;5.80;99.90
8994;DHT22;4532;50.886;4.700;2023-04-03T08:26:22;5.90;99.90
8994;DHT22;4532;50.886;4.700;2023-04-03T08:28:49;5.90;99.90
8994;DHT22;4532;50.886;4.700;2023-04-03T08:31:18;5.90;99.90
8994;DHT22;4532;50.886;4.700;2023-04-03T08:33:50;6.00;99.90
8994;DHT22;4532;50.886;4.700;2023-04-03T08:36:23;6.00;99.90
8994;DHT22;4532;50.886;4.700;2023-04-03T08:38:53;6.10;99.90
8994;DHT22;4532;50.886;4.700;2023-04-03T08:49:33;6.20;99.90
8994;DHT22;4532;50.886;4.700;2023-04-03T08:52:10;6.20;99.90
8994;DHT22;4532;50.886;4.700;2023-04-03T08:54:52;6.30;99.90
8994;DHT22;4532;50.886;4.700;2023-04-03T08:57:41;6.40;99.90
8994;DHT22;4532;50.886;4.700;2023-04-03T09:00:21;6.40;99.90
8994;DHT22;4532;50.886;4.700;2023-04-03T09:02:50;6.40;99.90
8994;DHT22;4532;50.886;4.700;2023-04-03T09:22:26;6.80;99.90
8994;DHT22;4532;50.886;4.700;2023-04-03T09:25:10;6.80;99.90
8994;DHT22;4532;50.886;4.700;2023-04-03T09:27:39;6.90;99.90
8994;DHT22;4532;50.886;4.700;2023-04-03T09:30:11;6.90;99.90
8994;DHT22;4532;50.886;4.700;2023-04-03T09:32:45;7.00;99.90
8994;DHT22;4532;50.886;4.700;2023-04-03T09:35:21;7.00;99.90
8994;DHT22;4532;50.886;4.700;2023-04-03T09:38:14;7.10;99.90
8994;DHT22;4532;50.886;4.700;2023-04-03T09:43:39;7.10;99.90
8994;DHT22;4532;50.886;4.700;2023-04-03T09:46:32;7.10;99.90
8994;DHT22;4532;50.886;4.700;2023-04-03T09:49:02;7.20;99.90
8994;DHT22;4532;50.886;4.700;2023-04-03T09:51:40;7.20;99.90
8994;DHT22;4532;50.886;4.700;2023-04-03T09:54:36;7.20;99.90
8994;DHT22;4532;50.886;4.700;2023-04-03T09:57:15;7.30;99.90
8994;DHT22;4532;50.886;4.700;2023-04-03T10:00:00;7.30;99.90
8994;DHT22;4532;50.886;4.700;2023-04-03T10:02:42;7.30;99.90
8994;DHT22;4532;50.886;4.700;2023-04-03T10:10:47;7.50;99.90
8994;DHT22;4532;50.886;4.700;2023-04-03T10:13:19;7.50;99.90
8994;DHT22;4532;50.886;4.700;2023-04-03T10:16:12;7.60;99.90
8994;DHT22;4532;50.886;4.700;2023-04-03T10:19:30;7.60;99.90
8994;DHT22;4532;50.886;4.700;2023-04-03T10:25:07;7.80;99.90
8994;DHT22;4532;50.886;4.700;2023-04-03T10:33:34;8.00;99.90
8994;DHT22;4532;50.886;4.700;2023-04-03T10:36:27;8.00;99.90
8994;DHT22;4532;50.886;4.700;2023-04-03T10:46:52;8.10;99.90
8994;DHT22;4532;50.886;4.700;2023-04-03T10:55:18;8.20;99.90
8994;DHT22;4532;50.886;4.700;2023-04-03T10:57:53;8.20;99.90
8994;DHT22;4532;50.886;4.700;2023-04-03T11:00:42;8.20;99.90
8994;DHT22;4532;50.886;4.700;2023-04-03T11:03:16;8.20;99.90
8994;DHT22;4532;50.886;4.700;2023-04-03T11:05:52;8.30;99.90
8994;DHT22;4532;50.886;4.700;2023-04-03T11:11:09;8.40;99.90
8994;DHT22;4532;50.886;4.700;2023-04-03T11:13:43;8.40;99.90
8994;DHT22;4532;50.886;4.700;2023-04-03T11:16:20;8.40;99.90
8994;DHT22;4532;50.886;4.700;2023-04-03T11:18:57;8.50;99.90
8994;DHT22;4532;50.886;4.700;2023-04-03T11:21:34;8.50;99.90
8994;DHT22;4532;50.886;4.700;2023-04-03T11:24:16;8.50;99.90
8994;DHT22;4532;50.886;4.700;2023-04-03T11:26:46;8.50;99.90
8994;DHT22;4532;50.886;4.700;2023-04-03T11:29:24;8.50;99.90
8994;DHT22;4532;50.886;4.700;2023-04-03T11:34:57;8.60;99.90
8994;DHT22;4532;50.886;4.700;2023-04-03T11:37:38;8.60;99.90
8994;DHT22;4532;50.886;4.700;2023-04-03T11:40:20;8.60;99.90
8994;DHT22;4532;50.886;4.700;2023-04-03T11:45:36;8.60;99.90
8994;DHT22;4532;50.886;4.700;2023-04-03T11:50:50;8.60;99.90
8994;DHT22;4532;50.886;4.700;2023-04-03T11:53:28;8.50;99.90
8994;DHT22;4532;50.886;4.700;2023-04-03T11:55:59;8.50;99.90
8994;DHT22;4532;50.886;4.700;2023-04-03T12:01:08;8.60;99.90
8994;DHT22;4532;50.886;4.700;2023-04-03T12:08:46;8.60;99.90
8994;DHT22;4532;50.886;4.700;2023-04-03T12:11:24;8.70;99.90
8994;DHT22;4532;50.886;4.700;2023-04-03T12:46:58;8.90;99.90
8994;DHT22;4532;50.886;4.700;2023-04-03T12:51:57;8.80;99.90
8994;DHT22;4532;50.886;4.700;2023-04-03T12:54:33;8.80;99.50
8994;DHT22;4532;50.886;4.700;2023-04-03T12:57:34;8.80;99.90
8994;DHT22;4532;50.886;4.700;2023-04-03T13:00:22;8.90;99.90
8994;DHT22;4532;50.886;4.700;2023-04-03T13:02:52;9.00;99.90
8994;DHT22;4532;50.886;4.700;2023-04-03T13:05:22;9.10;99.90
8994;DHT22;4532;50.886;4.700;2023-04-03T13:08:00;9.10;99.90
8994;DHT22;4532;50.886;4.700;2023-04-03T13:10:54;9.20;99.90
8994;DHT22;4532;50.886;4.700;2023-04-03T13:13:22;9.30;99.90
8994;DHT22;4532;50.886;4.700;2023-04-03T13:15:56;9.20;99.90
8994;DHT22;4532;50.886;4.700;2023-04-03T13:18:33;9.20;99.90
8994;DHT22;4532;50.886;4.700;2023-04-03T13:21:07;9.40;99.90
8994;DHT22;4532;50.886;4.700;2023-04-03T13:23:42;9.40;99.90
8994;DHT22;4532;50.886;4.700;2023-04-03T13:26:14;9.40;99.90
8994;DHT22;4532;50.886;4.700;2023-04-03T13:28:46;9.30;99.50
8994;DHT22;4532;50.886;4.700;2023-04-03T13:36:39;9.40;99.90
8994;DHT22;4532;50.886;4.700;2023-04-03T13:41:44;9.40;99.00
8994;DHT22;4532;50.886;4.700;2023-04-03T13:46:45;9.40;98.80
8994;DHT22;4532;50.886;4.700;2023-04-03T13:51:58;9.50;99.30
8994;DHT22;4532;50.886;4.700;2023-04-03T13:54:37;9.60;99.90
8994;DHT22;4532;50.886;4.700;2023-04-03T13:57:15;9.70;99.90
8994;DHT22;4532;50.886;4.700;2023-04-03T13:59:45;9.80;99.90
8994;DHT22;4532;50.886;4.700;2023-04-03T14:02:28;9.90;99.90
8994;DHT22;4532;50.886;4.700;2023-04-03T14:05:00;9.90;99.90
8994;DHT22;4532;50.886;4.700;2023-04-03T14:07:35;9.90;99.90
8994;DHT22;4532;50.886;4.700;2023-04-03T14:10:06;10.00;99.90
8994;DHT22;4532;50.886;4.700;2023-04-03T14:12:39;10.00;99.90
8994;DHT22;4532;50.886;4.700;2023-04-03T14:15:28;10.00;99.90
8994;DHT22;4532;50.886;4.700;2023-04-03T14:18:01;10.10;99.90
8994;DHT22;4532;50.886;4.700;2023-04-03T14:20:37;10.10;99.40
8994;DHT22;4532;50.886;4.700;2023-04-03T14:23:06;10.10;99.90
8994;DHT22;4532;50.886;4.700;2023-04-03T14:25:34;10.20;99.90
8994;DHT22;4532;50.886;4.700;2023-04-03T14:28:18;10.20;99.90
8994;DHT22;4532;50.886;4.700;2023-04-03T14:30:52;10.20;99.90
8994;DHT22;4532;50.886;4.700;2023-04-03T14:33:25;10.30;99.90
8994;DHT22;4532;50.886;4.700;2023-04-03T14:35:57;10.40;99.90
8994;DHT22;4532;50.886;4.700;2023-04-03T14:38:30;10.40;99.90
8994;DHT22;4532;50.886;4.700;2023-04-03T14:40:58;10.40;99.90
8994;DHT22;4532;50.886;4.700;2023-04-03T14:43:43;10.50;99.90
8994;DHT22;4532;50.886;4.700;2023-04-03T14:46:16;10.50;99.90
8994;DHT22;4532;50.886;4.700;2023-04-03T14:48:47;10.50;99.90
8994;DHT22;4532;50.886;4.700;2023-04-03T14:51:15;10.50;99.90
8994;DHT22;4532;50.886;4.700;2023-04-03T14:53:43;10.60;99.90
8994;DHT22;4532;50.886;4.700;2023-04-03T14:56:16;10.60;99.90
8994;DHT22;4532;50.886;4.700;2023-04-03T14:58:46;10.50;99.90
8994;DHT22;4532;50.886;4.700;2023-04-03T15:01:19;10.60;99.90
8994;DHT22;4532;50.886;4.700;2023-04-03T15:03:46;10.70;99.90
8994;DHT22;4532;50.886;4.700;2023-04-03T15:06:14;10.60;99.10
8994;DHT22;4532;50.886;4.700;2023-04-03T15:08:45;10.60;99.10
8994;DHT22;4532;50.886;4.700;2023-04-03T15:11:15;10.60;99.90
8994;DHT22;4532;50.886;4.700;2023-04-03T15:13:47;10.60;99.90
8994;DHT22;4532;50.886;4.700;2023-04-03T15:16:20;10.70;99.90
8994;DHT22;4532;50.886;4.700;2023-04-03T15:18:48;10.80;99.90
8994;DHT22;4532;50.886;4.700;2023-04-03T15:21:15;10.80;99.90
8994;DHT22;4532;50.886;4.700;2023-04-03T15:23:44;10.80;99.90
8994;DHT22;4532;50.886;4.700;2023-04-03T15:26:14;10.80;99.90
8994;DHT22;4532;50.886;4.700;2023-04-03T15:28:42;10.80;99.90
8994;DHT22;4532;50.886;4.700;2023-04-03T15:31:14;10.80;99.00
8994;DHT22;4532;50.886;4.700;2023-04-03T15:33:41;10.80;99.90
8994;DHT22;4532;50.886;4.700;2023-04-03T15:36:09;10.90;99.90
8994;DHT22;4532;50.886;4.700;2023-04-03T15:38:45;11.00;99.90
8994;DHT22;4532;50.886;4.700;2023-04-03T15:41:12;11.10;99.90
8994;DHT22;4532;50.886;4.700;2023-04-03T15:43:42;11.20;99.90
8994;DHT22;4532;50.886;4.700;2023-04-03T15:46:09;11.30;99.90
8994;DHT22;4532;50.886;4.700;2023-04-03T15:48:41;11.30;99.90
8994;DHT22;4532;50.886;4.700;2023-04-03T15:51:11;11.40;99.90
8994;DHT22;4532;50.886;4.700;2023-04-03T15:53:40;11.50;99.90
8994;DHT22;4532;50.886;4.700;2023-04-03T15:56:09;11.60;99.90
8994;DHT22;4532;50.886;4.700;2023-04-03T15:58:36;11.60;99.90
8994;DHT22;4532;50.886;4.700;2023-04-03T16:01:06;11.60;99.90
8994;DHT22;4532;50.886;4.700;2023-04-03T16:03:35;11.60;99.90
8994;DHT22;4532;50.886;4.700;2023-04-03T16:06:06;11.60;99.90
8994;DHT22;4532;50.886;4.700;2023-04-03T16:08:36;11.60;99.90
8994;DHT22;4532;50.886;4.700;2023-04-03T16:11:04;11.70;99.90
8994;DHT22;4532;50.886;4.700;2023-04-03T16:13:33;11.80;99.90
8994;DHT22;4532;50.886;4.700;2023-04-03T16:16:06;11.80;99.90
8994;DHT22;4532;50.886;4.700;2023-04-03T16:18:41;11.90;99.90
8994;DHT22;4532;50.886;4.700;2023-04-03T16:21:09;11.80;99.90
8994;DHT22;4532;50.886;4.700;2023-04-03T16:23:43;11.90;99.90
8994;DHT22;4532;50.886;4.700;2023-04-03T16:26:13;11.90;99.90
8994;DHT22;4532;50.886;4.700;2023-04-03T16:28:43;11.90;99.70
8994;DHT22;4532;50.886;4.700;2023-04-03T16:31:10;11.90;99.90
8994;DHT22;4532;50.886;4.700;2023-04-03T16:33:40;12.00;99.90
8994;DHT22;4532;50.886;4.700;2023-04-03T16:36:14;12.00;99.80
8994;DHT22;4532;50.886;4.700;2023-04-03T16:38:43;12.00;99.90
8994;DHT22;4532;50.886;4.700;2023-04-03T16:41:16;12.10;99.90
8994;DHT22;4532;50.886;4.700;2023-04-03T16:43:46;12.20;99.90
8994;DHT22;4532;50.886;4.700;2023-04-03T16:46:15;12.30;99.90
8994;DHT22;4532;50.886;4.700;2023-04-03T16:48:45;12.30;99.90
8994;DHT22;4532;50.886;4.700;2023-04-03T16:51:15;12.30;99.90
8994;DHT22;4532;50.886;4.700;2023-04-03T16:53:42;12.30;99.90
8994;DHT22;4532;50.886;4.700;2023-04-03T16:56:14;12.30;99.90
8994;DHT22;4532;50.886;4.700;2023-04-03T16:58:49;12.30;99.90
8994;DHT22;4532;50.886;4.700;2023-04-03T17:01:18;12.30;99.90
8994;DHT22;4532;50.886;4.700;2023-04-03T17:03:48;12.30;99.90
8994;DHT22;4532;50.886;4.700;2023-04-03T17:06:21;12.30;99.90
8994;DHT22;4532;50.886;4.700;2023-04-03T17:08:51;12.30;99.90
8994;DHT22;4532;50.886;4.700;2023-04-03T17:11:18;12.30;99.90
8994;DHT22;4532;50.886;4.700;2023-04-03T17:13:46;12.30;99.90
8994;DHT22;4532;50.886;4.700;2023-04-03T17:16:14;12.40;99.90
8994;DHT22;4532;50.886;4.700;2023-04-03T17:18:45;12.40;99.90
8994;DHT22;4532;50.886;4.700;2023-04-03T17:21:14;12.30;99.90
8994;DHT22;4532;50.886;4.700;2023-04-03T17:23:49;12.30;99.90
8994;DHT22;4532;50.886;4.700;2023-04-03T17:26:22;12.30;99.90
8994;DHT22;4532;50.886;4.700;2023-04-03T17:28:52;12.20;99.90
8994;DHT22;4532;50.886;4.700;2023-04-03T17:31:20;12.20;99.90
8994;DHT22;4532;50.886;4.700;2023-04-03T17:33:49;12.20;99.90
8994;DHT22;4532;50.886;4.700;2023-04-03T17:36:21;12.10;99.90
8994;DHT22;4532;50.886;4.700;2023-04-03T17:38:52;12.10;99.10
8994;DHT22;4532;50.886;4.700;2023-04-03T17:41:20;12.00;99.90
8994;DHT22;4532;50.886;4.700;2023-04-03T17:43:48;12.00;99.90
8994;DHT22;4532;50.886;4.700;2023-04-03T17:46:17;11.90;99.90
8994;DHT22;4532;50.886;4.700;2023-04-03T17:48:45;12.00;99.90
8994;DHT22;4532;50.886;4.700;2023-04-03T17:51:15;11.90;99.90
8994;DHT22;4532;50.886;4.700;2023-04-03T17:53:42;11.80;99.90
8994;DHT22;4532;50.886;4.700;2023-04-03T17:56:12;11.80;99.90
8994;DHT22;4532;50.886;4.700;2023-04-03T17:58:41;11.70;99.90
8994;DHT22;4532;50.886;4.700;2023-04-03T18:01:17;11.60;99.90
8994;DHT22;4532;50.886;4.700;2023-04-03T18:03:48;11.60;99.80
8994;DHT22;4532;50.886;4.700;2023-04-03T18:06:22;11.50;99.90
8994;DHT22;4532;50.886;4.700;2023-04-03T18:08:52;11.30;98.80
8994;DHT22;4532;50.886;4.700;2023-04-03T18:11:25;11.10;98.30
8994;DHT22;4532;50.886;4.700;2023-04-03T18:13:56;11.00;99.50
8994;DHT22;4532;50.886;4.700;2023-04-03T18:16:29;11.00;98.80
8994;DHT22;4532;50.886;4.700;2023-04-03T18:18:59;10.80;98.80
8994;DHT22;4532;50.886;4.700;2023-04-03T18:21:49;10.70;98.50
8994;DHT22;4532;50.886;4.700;2023-04-03T18:24:19;10.60;97.90
8994;DHT22;4532;50.886;4.700;2023-04-03T18:26:52;10.50;97.60
8994;DHT22;4532;50.886;4.700;2023-04-03T18:29:22;10.30;98.30
8994;DHT22;4532;50.886;4.700;2023-04-03T18:31:53;10.20;98.00
8994;DHT22;4532;50.886;4.700;2023-04-03T18:34:21;10.10;98.10
8994;DHT22;4532;50.886;4.700;2023-04-03T18:36:48;10.10;98.20
8994;DHT22;4532;50.886;4.700;2023-04-03T18:39:16;10.10;97.90
8994;DHT22;4532;50.886;4.700;2023-04-03T18:41:43;10.00;98.50
8994;DHT22;4532;50.886;4.700;2023-04-03T18:44:15;9.90;98.50
8994;DHT22;4532;50.886;4.700;2023-04-03T18:46:44;9.80;98.30
8994;DHT22;4532;50.886;4.700;2023-04-03T18:49:13;9.80;99.00
8994;DHT22;4532;50.886;4.700;2023-04-03T18:51:44;9.70;98.70
8994;DHT22;4532;50.886;4.700;2023-04-03T18:54:13;9.70;99.20
8994;DHT22;4532;50.886;4.700;2023-04-03T18:56:47;9.70;98.70
8994;DHT22;4532;50.886;4.700;2023-04-03T18:59:17;9.60;98.10